Time;durP1;ratioP1;P1;durP2;ratioP2;P2;SDS_P1;SDS_P2;PMS_P1;PMS_P2;Temp;Humidity;BMP_temperature;BMP_pressure;BME280_temperature;BME280_humidity;BME280_pressure;Samples;Min_cycle;Max_cycle;Signal;HPM_P1;HPM_P2
2021/10/13 00:01:00;;;;;;;9.38;3.05;;;5.90;99.90;;;;;;5049211;28;20162;-77
2021/10/13 00:03:26;;;;;;;9.38;2.78;;;5.90;99.90;;;;;;5048513;28;20157;-77
2021/10/13 00:05:52;;;;;;;4.78;2.90;;;5.90;99.90;;;;;;5048994;28;20168;-77
2021/10/13 00:08:18;;;;;;;6.15;3.20;;;5.80;99.90;;;;;;5048847;28;20217;-76
2021/10/13 00:10:46;;;;;;;5.40;2.65;;;5.90;99.90;;;;;;5048238;28;20173;-76
2021/10/13 00:13:14;;;;;;;6.82;3.22;;;6.00;99.90;;;;;;5046971;28;20186;-77
2021/10/13 00:15:41;;;;;;;3.47;2.55;;;6.00;99.90;;;;;;5048572;28;20213;-77
2021/10/13 00:18:07;;;;;;;7.25;3.63;;;6.10;99.90;;;;;;5047181;28;20189;-77
2021/10/13 00:20:34;;;;;;;5.45;3.33;;;6.20;99.90;;;;;;5047357;28;20192;-77
2021/10/13 00:23:00;;;;;;;8.35;3.00;;;6.20;99.90;;;;;;5046822;28;20369;-77
2021/10/13 00:25:26;;;;;;;4.65;3.42;;;6.20;99.90;;;;;;5066513;28;20224;-76
2021/10/13 00:27:52;;;;;;;10.13;3.70;;;6.20;99.90;;;;;;5088451;28;20191;-77
2021/10/13 00:30:19;;;;;;;9.25;4.13;;;6.20;99.90;;;;;;5087002;28;20172;-76
2021/10/13 00:32:45;;;;;;;10.57;4.63;;;6.20;99.90;;;;;;5086484;28;20172;-76
2021/10/13 00:35:12;;;;;;;9.43;5.45;;;6.10;99.90;;;;;;5086899;28;20267;-77
2021/10/13 00:37:38;;;;;;;6.43;4.95;;;6.10;99.90;;;;;;5067632;28;20192;-77
2021/10/13 00:40:06;;;;;;;10.25;5.95;;;6.00;99.90;;;;;;5066910;28;20200;-76
2021/10/13 00:42:32;;;;;;;10.80;5.68;;;6.00;99.90;;;;;;5068204;28;20185;-76
2021/10/13 00:44:58;;;;;;;7.95;5.13;;;6.00;99.90;;;;;;5066867;28;20167;-77
2021/10/13 00:47:24;;;;;;;7.03;4.88;;;6.00;99.90;;;;;;5068207;28;20176;-76
2021/10/13 00:49:50;;;;;;;9.55;5.40;;;6.00;99.90;;;;;;5066823;28;20161;-77
2021/10/13 00:52:18;;;;;;;11.52;5.90;;;6.00;99.90;;;;;;5062015;28;20330;-77
2021/10/13 00:54:45;;;;;;;8.38;5.25;;;6.20;99.90;;;;;;5030265;28;20188;-77
2021/10/13 00:57:12;;;;;;;8.35;5.35;;;6.10;99.90;;;;;;5047951;28;20205;-77
2021/10/13 00:59:39;;;;;;;9.30;5.03;;;6.20;99.90;;;;;;5013794;28;20189;-77
2021/10/13 01:02:20;;;;;;;13.25;6.70;;;6.20;99.90;;;;;;5029863;28;20236;-77
2021/10/13 01:05:00;;;;;;;7.72;4.97;;;6.10;99.90;;;;;;5047729;28;20195;-77
2021/10/13 01:07:32;;;;;;;11.27;6.30;;;6.10;99.90;;;;;;5047845;28;20244;-77
2021/10/13 01:10:26;;;;;;;11.75;5.50;;;6.20;99.90;;;;;;5029832;28;20250;-77
2021/10/13 01:13:14;;;;;;;7.00;4.50;;;6.20;99.90;;;;;;5029608;28;20199;-77
2021/10/13 01:16:10;;;;;;;10.25;5.13;;;6.30;99.90;;;;;;5047455;28;20544;-77
2021/10/13 01:18:47;;;;;;;14.65;5.28;;;6.30;99.90;;;;;;5029698;28;20488;-77
2021/10/13 01:21:50;;;;;;;10.55;5.32;;;6.20;99.90;;;;;;5047259;28;20193;-77
2021/10/13 01:24:40;;;;;;;9.68;5.45;;;6.20;99.90;;;;;;5026372;28;20556;-77
2021/10/13 01:27:31;;;;;;;9.95;5.28;;;6.20;99.90;;;;;;5044145;28;20180;-77
2021/10/13 01:29:59;;;;;;;8.15;5.30;;;6.20;99.90;;;;;;5044278;28;20153;-77
2021/10/13 01:32:30;;;;;;;8.57;4.28;;;6.20;99.90;;;;;;5045287;28;20276;-77
2021/10/13 01:34:59;;;;;;;10.70;5.20;;;6.20;99.90;;;;;;5045210;28;20181;-77
2021/10/13 01:37:30;;;;;;;10.85;4.65;;;6.30;99.90;;;;;;5045841;28;20204;-77
2021/10/13 01:39:58;;;;;;;9.75;5.22;;;6.30;99.90;;;;;;5029509;28;20235;-77
2021/10/13 01:42:25;;;;;;;8.60;4.43;;;6.30;99.90;;;;;;5029338;28;20223;-77
2021/10/13 01:44:55;;;;;;;10.15;6.35;;;6.40;99.90;;;;;;5029428;28;20176;-77
2021/10/13 01:47:23;;;;;;;9.25;6.05;;;6.40;99.90;;;;;;5047293;28;20161;-77
2021/10/13 01:49:55;;;;;;;11.63;6.28;;;6.30;99.90;;;;;;5029340;28;20199;-77
2021/10/13 01:52:24;;;;;;;14.52;6.45;;;6.20;99.90;;;;;;5038919;28;20218;-77
2021/10/13 01:54:56;;;;;;;17.00;8.27;;;6.20;99.90;;;;;;5065584;28;20203;-77
2021/10/13 01:57:25;;;;;;;28.10;8.32;;;6.10;99.90;;;;;;5067137;28;20163;-77
2021/10/13 01:59:56;;;;;;;22.25;7.78;;;6.10;99.90;;;;;;5067075;28;20157;-77
2021/10/13 02:02:30;;;;;;;17.60;6.90;;;6.20;99.90;;;;;;5066934;28;20192;-77
2021/10/13 02:04:58;;;;;;;18.20;7.32;;;6.20;99.90;;;;;;5065672;28;20165;-77
2021/10/13 02:07:27;;;;;;;12.65;6.65;;;6.20;99.90;;;;;;5067067;28;20475;-77
2021/10/13 02:09:57;;;;;;;15.50;6.80;;;6.20;99.90;;;;;;5067060;28;20271;-77
2021/10/13 02:12:25;;;;;;;10.52;6.20;;;6.30;99.90;;;;;;5066971;28;20180;-77
2021/10/13 02:14:52;;;;;;;10.88;6.85;;;6.40;99.90;;;;;;5066789;28;20160;-77
2021/10/13 02:17:20;;;;;;;14.80;6.80;;;6.50;99.90;;;;;;5065493;28;20172;-77
2021/10/13 02:19:48;;;;;;;7.93;5.70;;;6.50;99.90;;;;;;5065671;28;20169;-76
2021/10/13 02:22:17;;;;;;;8.90;5.55;;;6.40;99.90;;;;;;5066999;28;20490;-77
2021/10/13 02:24:49;;;;;;;7.95;5.63;;;6.50;99.90;;;;;;5065612;28;20237;-77
2021/10/13 02:27:33;;;;;;;7.70;4.72;;;6.50;99.90;;;;;;5065570;28;20172;-77
2021/10/13 02:30:00;;;;;;;10.10;5.57;;;6.50;99.90;;;;;;5067002;28;20233;-77
2021/10/13 02:32:27;;;;;;;10.52;5.68;;;6.50;99.90;;;;;;5066846;28;20198;-77
2021/10/13 02:34:56;;;;;;;20.33;6.43;;;6.50;99.90;;;;;;5069994;28;20169;-77
2021/10/13 02:37:22;;;;;;;10.95;6.10;;;6.50;99.90;;;;;;5070642;28;20291;-76
2021/10/13 02:39:48;;;;;;;9.85;5.65;;;6.50;99.90;;;;;;5070709;28;20161;-77
2021/10/13 02:42:14;;;;;;;11.60;5.97;;;6.50;99.90;;;;;;5071899;28;20677;-78
2021/10/13 02:44:40;;;;;;;10.40;5.28;;;6.50;99.90;;;;;;5071560;28;20172;-77
2021/10/13 02:47:31;;;;;;;8.18;4.95;;;6.50;99.90;;;;;;5070323;28;20165;-77
2021/10/13 02:50:13;;;;;;;8.02;4.55;;;6.50;99.90;;;;;;5071469;28;20621;-76
2021/10/13 02:53:05;;;;;;;7.95;5.28;;;6.50;99.90;;;;;;5069678;28;20235;-77
2021/10/13 02:56:16;;;;;;;9.63;4.75;;;6.50;99.90;;;;;;5071239;28;20193;-76
2021/10/13 02:58:52;;;;;;;11.27;5.05;;;6.60;99.90;;;;;;5009330;28;20186;-76
2021/10/13 03:01:19;;;;;;;10.75;5.22;;;6.50;99.90;;;;;;5010125;28;20198;-76
2021/10/13 03:03:58;;;;;;;10.23;5.35;;;6.60;99.90;;;;;;5009684;28;20210;-77
2021/10/13 03:06:29;;;;;;;11.45;4.78;;;6.60;99.90;;;;;;4992945;28;20175;-76
2021/10/13 03:08:56;;;;;;;7.38;5.43;;;6.70;99.90;;;;;;4992498;28;20212;-76
2021/10/13 03:11:28;;;;;;;5.88;3.72;;;6.70;99.90;;;;;;5008980;28;20217;-77
2021/10/13 03:13:55;;;;;;;16.27;3.63;;;6.70;99.90;;;;;;5009003;28;20204;-77
2021/10/13 03:16:23;;;;;;;4.88;2.60;;;6.70;99.90;;;;;;5008607;28;20245;-76
2021/10/13 03:18:50;;;;;;;9.30;2.80;;;6.70;99.90;;;;;;5008625;28;20202;-77
2021/10/13 03:21:17;;;;;;;2.53;1.80;;;6.90;99.90;;;;;;5008556;28;20229;-76
2021/10/13 03:23:43;;;;;;;9.75;3.42;;;7.00;99.90;;;;;;5008440;28;20183;-77
2021/10/13 03:26:12;;;;;;;5.60;2.50;;;7.00;99.90;;;;;;5008365;28;20159;-76
2021/10/13 03:28:39;;;;;;;2.97;1.52;;;7.00;99.90;;;;;;4991939;28;20227;-76
2021/10/13 03:31:06;;;;;;;1.77;0.98;;;7.30;99.90;;;;;;5008139;28;20205;-76
2021/10/13 03:33:32;;;;;;;3.58;0.95;;;7.60;99.90;;;;;;5008383;28;20165;-77
2021/10/13 03:35:59;;;;;;;1.38;0.70;;;7.90;99.90;;;;;;5045257;28;20280;-76
2021/10/13 03:38:25;;;;;;;0.85;0.70;;;8.40;99.90;;;;;;5069834;28;20161;-76
2021/10/13 03:40:51;;;;;;;2.55;0.90;;;8.60;99.90;;;;;;5069751;28;20519;-76
2021/10/13 03:43:17;;;;;;;2.10;1.10;;;8.70;99.90;;;;;;5064389;28;20366;-76
2021/10/13 03:45:43;;;;;;;2.47;1.10;;;8.70;99.90;;;;;;5068527;28;20251;-77
2021/10/13 03:48:10;;;;;;;2.38;1.15;;;8.80;99.90;;;;;;5069665;28;20224;-77
2021/10/13 03:50:35;;;;;;;1.52;0.95;;;8.70;99.90;;;;;;5069522;28;20227;-77
2021/10/13 03:53:01;;;;;;;2.92;1.45;;;8.60;99.90;;;;;;5057138;28;20229;-76
2021/10/13 03:55:27;;;;;;;2.38;0.93;;;8.60;99.90;;;;;;5049517;28;20192;-77
2021/10/13 03:57:53;;;;;;;5.03;1.05;;;8.60;99.90;;;;;;5049519;28;20166;-77
2021/10/13 04:00:21;;;;;;;1.88;0.80;;;8.50;99.90;;;;;;5049139;28;20623;-76
2021/10/13 04:02:48;;;;;;;1.63;0.60;;;8.50;99.90;;;;;;5031252;28;20193;-77
2021/10/13 04:05:14;;;;;;;0.75;0.60;;;8.50;99.90;;;;;;5049158;28;20149;-76
2021/10/13 04:07:41;;;;;;;1.10;0.52;;;8.60;99.90;;;;;;5031369;28;20582;-79
2021/10/13 04:10:10;;;;;;;0.50;0.40;;;8.60;99.90;;;;;;5049133;28;20157;-77
2021/10/13 04:12:37;;;;;;;0.47;0.35;;;8.60;99.90;;;;;;5049084;28;20193;-77
2021/10/13 04:15:05;;;;;;;0.30;0.30;;;8.70;99.90;;;;;;5048968;28;20598;-76
2021/10/13 04:17:33;;;;;;;0.28;0.25;;;8.70;99.90;;;;;;5049113;28;20167;-76
2021/10/13 04:20:05;;;;;;;0.45;0.28;;;8.60;99.90;;;;;;5048777;28;20180;-76
2021/10/13 04:22:31;;;;;;;0.30;0.30;;;8.60;99.90;;;;;;5048656;28;20189;-77
2021/10/13 04:24:58;;;;;;;0.47;0.30;;;8.50;99.90;;;;;;5048941;28;20208;-76
2021/10/13 04:27:24;;;;;;;0.10;0.10;;;8.40;99.90;;;;;;5048976;28;20196;-76
2021/10/13 04:29:50;;;;;;;0.35;0.30;;;8.40;99.90;;;;;;5030765;28;20166;-76
2021/10/13 04:32:20;;;;;;;1.70;0.52;;;8.40;99.90;;;;;;5030588;28;20207;-76
2021/10/13 04:34:48;;;;;;;0.40;0.20;;;8.30;99.90;;;;;;5030521;28;20173;-77
2021/10/13 04:37:14;;;;;;;2.08;0.30;;;8.20;99.90;;;;;;5048604;28;20200;-77
2021/10/13 04:39:39;;;;;;;0.40;0.40;;;8.30;99.90;;;;;;5048441;28;20154;-77
2021/10/13 04:42:05;;;;;;;5.05;0.30;;;8.30;99.90;;;;;;5030528;28;20579;-77
2021/10/13 04:44:31;;;;;;;2.15;0.40;;;8.20;99.90;;;;;;5048557;28;20311;-76
2021/10/13 04:46:57;;;;;;;0.38;0.30;;;8.20;99.90;;;;;;5048273;28;20161;-77
2021/10/13 04:49:23;;;;;;;0.77;0.35;;;8.10;99.90;;;;;;5048466;28;20157;-77
2021/10/13 04:51:49;;;;;;;1.90;0.22;;;8.10;99.90;;;;;;5048135;28;20172;-77
2021/10/13 04:54:14;;;;;;;0.30;0.30;;;8.10;99.90;;;;;;5048276;28;20227;-76
2021/10/13 04:56:40;;;;;;;0.95;0.47;;;8.10;99.90;;;;;;5048043;28;20228;-77
2021/10/13 04:59:06;;;;;;;0.30;0.30;;;8.20;99.90;;;;;;5030392;28;20169;-77
2021/10/13 05:01:32;;;;;;;0.70;0.50;;;8.20;99.90;;;;;;5048357;28;20158;-77
2021/10/13 05:03:58;;;;;;;0.30;0.25;;;8.20;99.90;;;;;;5030111;28;20264;-76
2021/10/13 05:06:24;;;;;;;0.45;0.30;;;8.20;99.90;;;;;;5030441;28;20181;-77
2021/10/13 05:08:49;;;;;;;1.02;0.22;;;8.10;99.90;;;;;;5048060;28;20181;-76
2021/10/13 05:11:15;;;;;;;0.15;0.15;;;8.00;99.90;;;;;;5047803;28;20166;-76
2021/10/13 05:13:41;;;;;;;0.20;0.20;;;7.90;99.90;;;;;;5047753;28;20203;-77
2021/10/13 05:16:07;;;;;;;0.20;0.20;;;7.90;99.90;;;;;;5047981;28;20653;-77
2021/10/13 05:18:34;;;;;;;0.35;0.30;;;7.80;99.90;;;;;;5029923;28;20195;-77
2021/10/13 05:21:00;;;;;;;0.60;0.30;;;7.80;99.90;;;;;;5047973;28;20171;-77
2021/10/13 05:23:26;;;;;;;0.30;0.30;;;7.80;99.90;;;;;;5029877;28;20193;-77
2021/10/13 05:25:52;;;;;;;0.20;0.20;;;7.70;99.90;;;;;;5047887;28;20161;-77
2021/10/13 05:28:18;;;;;;;1.58;0.60;;;7.70;99.90;;;;;;5047839;28;20181;-76
2021/10/13 05:30:44;;;;;;;0.22;0.20;;;7.60;99.90;;;;;;5029851;28;20181;-76
2021/10/13 05:33:10;;;;;;;0.52;0.25;;;7.70;99.90;;;;;;5029818;28;20228;-76
2021/10/13 05:35:36;;;;;;;0.60;0.35;;;7.70;99.90;;;;;;5029835;28;20211;-76
2021/10/13 05:38:02;;;;;;;1.20;0.32;;;7.70;99.90;;;;;;5029527;28;20169;-76
2021/10/13 05:40:28;;;;;;;0.30;0.22;;;7.70;99.90;;;;;;5047481;28;20153;-76
2021/10/13 05:42:54;;;;;;;0.40;0.30;;;7.80;99.90;;;;;;5047614;28;20623;-77
2021/10/13 05:45:20;;;;;;;1.55;0.30;;;7.90;99.90;;;;;;5029633;28;20287;-76
2021/10/13 05:47:46;;;;;;;0.50;0.30;;;7.90;99.90;;;;;;5047772;28;20157;-76
2021/10/13 05:50:12;;;;;;;0.40;0.20;;;7.90;99.90;;;;;;5029679;28;20181;-76
2021/10/13 05:52:38;;;;;;;1.63;0.40;;;8.00;99.90;;;;;;5047850;28;20229;-77
2021/10/13 05:55:04;;;;;;;6.53;0.55;;;8.00;99.90;;;;;;5047387;28;20536;-77
2021/10/13 05:57:30;;;;;;;0.25;0.20;;;8.00;99.90;;;;;;5047615;28;20188;-77
2021/10/13 05:59:58;;;;;;;0.47;0.40;;;8.00;99.90;;;;;;5047413;28;20162;-77
2021/10/13 06:02:25;;;;;;;10.45;0.60;;;8.00;99.90;;;;;;5047342;28;20192;-77
2021/10/13 06:04:52;;;;;;;0.30;0.30;;;8.00;99.90;;;;;;5047465;28;20163;-77
2021/10/13 06:07:18;;;;;;;1.20;0.50;;;8.00;99.90;;;;;;5047427;28;20168;-77
2021/10/13 06:09:44;;;;;;;0.40;0.30;;;8.10;99.90;;;;;;5032751;28;20201;-77
2021/10/13 06:12:10;;;;;;;0.28;0.28;;;8.00;99.90;;;;;;5051302;28;20169;-77
2021/10/13 06:14:36;;;;;;;0.73;0.52;;;7.90;99.90;;;;;;5033384;28;20617;-77
2021/10/13 06:17:04;;;;;;;0.30;0.20;;;7.90;99.90;;;;;;5033398;28;20220;-76
2021/10/13 06:19:30;;;;;;;2.47;0.47;;;8.00;99.90;;;;;;5033394;28;20199;-77
2021/10/13 06:21:56;;;;;;;0.45;0.30;;;8.00;99.90;;;;;;5033471;28;20165;-77
2021/10/13 06:24:22;;;;;;;0.90;0.75;;;8.00;99.90;;;;;;5033505;28;20170;-76
2021/10/13 06:26:48;;;;;;;0.20;0.20;;;8.10;99.90;;;;;;5051173;28;20158;-76
2021/10/13 06:29:14;;;;;;;2.88;0.50;;;8.00;99.90;;;;;;5050896;28;20162;-76
2021/10/13 06:31:39;;;;;;;2.28;0.40;;;8.00;99.90;;;;;;5033117;28;20245;-76
2021/10/13 06:34:05;;;;;;;0.88;0.47;;;8.20;99.90;;;;;;5033053;28;20193;-77
2021/10/13 06:36:32;;;;;;;0.55;0.25;;;8.10;99.90;;;;;;5050874;28;20204;-77
2021/10/13 06:38:58;;;;;;;0.93;0.50;;;8.10;99.90;;;;;;5044662;28;20191;-77
2021/10/13 06:41:27;;;;;;;1.08;0.30;;;8.20;99.90;;;;;;5018021;28;20261;-77
2021/10/13 06:43:53;;;;;;;0.47;0.30;;;8.40;99.90;;;;;;5031751;28;20197;-77
2021/10/13 06:46:19;;;;;;;0.50;0.25;;;8.30;99.90;;;;;;5047567;28;20162;-77
2021/10/13 06:48:45;;;;;;;0.30;0.30;;;8.30;99.90;;;;;;5030806;28;20477;-77
2021/10/13 06:51:11;;;;;;;4.28;0.40;;;8.30;99.90;;;;;;5030985;28;20158;-76
2021/10/13 06:53:37;;;;;;;2.15;0.40;;;8.40;99.90;;;;;;5030812;28;20253;-76
2021/10/13 06:56:03;;;;;;;0.52;0.30;;;8.50;99.90;;;;;;5044178;28;20197;-77
2021/10/13 06:58:30;;;;;;;0.30;0.30;;;8.50;99.90;;;;;;5033017;28;20233;-77
2021/10/13 07:00:56;;;;;;;0.73;0.70;;;8.50;99.90;;;;;;5050682;28;20521;-76
2021/10/13 07:03:21;;;;;;;0.22;0.22;;;8.50;99.90;;;;;;5032689;28;20193;-76
2021/10/13 07:05:47;;;;;;;0.20;0.20;;;8.70;99.90;;;;;;5032844;28;20189;-77
2021/10/13 07:08:13;;;;;;;0.52;0.30;;;8.70;99.90;;;;;;5050505;28;20182;-76
2021/10/13 07:10:39;;;;;;;0.93;0.60;;;8.80;99.90;;;;;;5050566;28;20161;-76
2021/10/13 07:13:05;;;;;;;0.30;0.30;;;8.90;99.90;;;;;;5019659;28;20229;-74
2021/10/13 07:15:31;;;;;;;0.80;0.43;;;9.10;99.90;;;;;;5030361;28;20194;-76
2021/10/13 07:17:57;;;;;;;0.35;0.22;;;9.20;99.90;;;;;;5012557;28;20185;-76
2021/10/13 07:20:24;;;;;;;0.30;0.22;;;9.40;99.90;;;;;;5029931;28;20163;-76
2021/10/13 07:22:50;;;;;;;0.40;0.30;;;9.50;99.90;;;;;;5029944;28;20197;-75
2021/10/13 07:25:21;;;;;;;0.93;0.40;;;9.50;99.90;;;;;;5029841;28;20185;-76
2021/10/13 07:27:47;;;;;;;0.32;0.30;;;9.70;99.90;;;;;;5033334;28;20243;-74
2021/10/13 07:30:17;;;;;;;0.93;0.80;;;9.80;99.90;;;;;;5049167;28;20267;-76
2021/10/13 07:32:43;;;;;;;0.20;0.20;;;9.80;99.90;;;;;;5049161;28;20744;-76
2021/10/13 07:35:09;;;;;;;0.77;0.47;;;9.90;99.90;;;;;;5052307;28;20176;-76
2021/10/13 07:37:35;;;;;;;2.05;0.45;;;10.20;99.90;;;;;;5051821;28;20169;-76
2021/10/13 07:40:03;;;;;;;0.52;0.30;;;11.20;99.90;;;;;;5048489;28;20200;-77
2021/10/13 07:42:31;;;;;;;1.42;0.43;;;12.40;99.90;;;;;;5049532;28;20197;-76
2021/10/13 07:44:56;;;;;;;0.20;0.20;;;13.40;99.90;;;;;;5049613;28;20158;-77
2021/10/13 07:47:23;;;;;;;0.20;0.20;;;13.40;99.90;;;;;;5063870;28;20169;-76
2021/10/13 07:49:49;;;;;;;0.75;0.55;;;14.00;99.90;;;;;;5051139;28;20192;-76
2021/10/13 07:52:15;;;;;;;0.50;0.40;;;14.40;99.20;;;;;;5059444;28;20220;-76
2021/10/13 07:54:41;;;;;;;0.88;0.40;;;14.40;98.50;;;;;;5088328;28;20207;-76
2021/10/13 07:57:07;;;;;;;0.50;0.17;;;14.20;98.90;;;;;;5087842;28;20211;-76
2021/10/13 07:59:32;;;;;;;5.20;0.55;;;13.30;99.30;;;;;;5089350;28;20680;-76
2021/10/13 08:01:58;;;;;;;4.93;0.52;;;13.70;99.40;;;;;;5089384;28;20163;-75
2021/10/13 08:04:25;;;;;;;0.20;0.20;;;13.90;99.20;;;;;;5089327;28;20153;-75
2021/10/13 08:06:52;;;;;;;0.35;0.13;;;14.30;98.10;;;;;;5089283;28;20172;-75
2021/10/13 08:09:18;;;;;;;0.40;0.20;;;14.00;97.40;;;;;;5089104;28;20199;-77
2021/10/13 08:11:45;;;;;;;1.08;0.50;;;14.10;98.80;;;;;;5089291;28;20243;-78
2021/10/13 08:14:11;;;;;;;0.32;0.20;;;14.50;96.90;;;;;;5089156;28;20163;-77
2021/10/13 08:16:37;;;;;;;1.38;0.30;;;14.70;98.30;;;;;;5082966;28;20265;-77
2021/10/13 08:19:03;;;;;;;0.30;0.30;;;15.30;96.50;;;;;;5069121;28;20268;-76
2021/10/13 08:21:29;;;;;;;0.57;0.30;;;15.10;96.50;;;;;;5068934;28;20160;-77
2021/10/13 08:23:55;;;;;;;4.55;0.60;;;14.50;98.20;;;;;;5067496;28;20172;-77
2021/10/13 08:26:21;;;;;;;3.45;0.75;;;14.40;98.00;;;;;;5069046;28;20164;-76
2021/10/13 08:28:47;;;;;;;1.98;0.20;;;14.40;96.30;;;;;;5068952;28;20165;-76
2021/10/13 08:31:14;;;;;;;0.55;0.30;;;14.60;96.50;;;;;;5066568;28;20192;-76
2021/10/13 08:33:41;;;;;;;0.20;0.20;;;14.20;95.70;;;;;;5068867;28;20171;-76
2021/10/13 08:36:08;;;;;;;0.95;0.30;;;13.90;97.70;;;;;;5068651;28;20188;-75
2021/10/13 08:38:33;;;;;;;2.08;1.27;;;14.20;98.40;;;;;;5068659;28;20172;-76
2021/10/13 08:40:59;;;;;;;1.45;0.52;;;15.10;96.80;;;;;;5068690;28;20189;-76
2021/10/13 08:43:25;;;;;;;0.35;0.25;;;15.30;95.00;;;;;;5068339;28;20203;-77
2021/10/13 08:45:51;;;;;;;0.38;0.20;;;14.20;95.30;;;;;;5068321;28;20172;-76
2021/10/13 08:48:17;;;;;;;0.50;0.32;;;14.50;96.60;;;;;;5076717;28;20650;-76
2021/10/13 08:50:46;;;;;;;1.08;0.40;;;14.80;96.20;;;;;;5067036;28;20200;-76
2021/10/13 08:53:15;;;;;;;0.30;0.30;;;14.90;95.80;;;;;;5054816;28;20221;-76
2021/10/13 08:55:43;;;;;;;1.25;0.40;;;15.40;94.70;;;;;;5048707;28;20192;-76
2021/10/13 08:58:19;;;;;;;0.28;0.20;;;15.10;95.00;;;;;;5048521;28;20518;-77
2021/10/13 09:01:04;;;;;;;0.65;0.30;;;15.60;94.40;;;;;;5048795;28;20192;-75
2021/10/13 09:03:32;;;;;;;1.38;0.70;;;14.80;95.50;;;;;;5044916;28;20253;-76
2021/10/13 09:06:11;;;;;;;1.13;0.43;;;15.10;97.10;;;;;;5028733;28;20225;-75
2021/10/13 09:08:59;;;;;;;0.82;0.20;;;15.20;95.60;;;;;;5010629;28;20182;-73
2021/10/13 09:11:38;;;;;;;0.55;0.50;;;16.20;95.00;;;;;;5028442;28;20218;-76
2021/10/13 09:14:29;;;;;;;0.30;0.20;;;16.40;93.80;;;;;;5010887;28;20200;-75
2021/10/13 09:17:07;;;;;;;6.07;0.70;;;17.50;92.90;;;;;;5036591;28;20198;-74
2021/10/13 09:19:51;;;;;;;0.88;0.40;;;15.60;94.00;;;;;;5047994;28;20188;-74
2021/10/13 09:22:18;;;;;;;1.25;0.38;;;14.70;96.10;;;;;;5047959;28;20158;-74
2021/10/13 09:24:49;;;;;;;0.20;0.20;;;15.10;95.40;;;;;;5047863;28;20161;-74
2021/10/13 09:27:23;;;;;;;0.32;0.32;;;15.00;93.90;;;;;;5047912;28;20157;-74
2021/10/13 09:29:50;;;;;;;0.20;0.20;;;14.90;94.40;;;;;;5030074;28;20303;-75
2021/10/13 09:32:22;;;;;;;0.70;0.40;;;14.80;94.40;;;;;;5029954;28;20278;-75
2021/10/13 09:34:57;;;;;;;1.25;0.50;;;14.60;95.70;;;;;;5029835;28;20214;-74
2021/10/13 09:37:24;;;;;;;2.58;0.20;;;15.00;95.70;;;;;;5047615;28;20260;-74
2021/10/13 09:40:03;;;;;;;1.27;0.30;;;14.60;94.60;;;;;;5029837;28;20214;-76
2021/10/13 09:42:40;;;;;;;2.92;0.70;;;14.10;95.70;;;;;;5047874;28;20150;-74
2021/10/13 09:45:11;;;;;;;0.47;0.45;;;13.40;97.10;;;;;;5047842;28;20218;-74
2021/10/13 09:47:38;;;;;;;1.20;0.20;;;12.40;96.90;;;;;;5044568;28;20211;-75
2021/10/13 09:50:14;;;;;;;0.40;0.30;;;11.90;97.30;;;;;;5048975;28;20284;-75
2021/10/13 09:52:41;;;;;;;2.17;0.38;;;11.60;97.40;;;;;;5047454;28;20243;-75
2021/10/13 09:55:11;;;;;;;1.05;0.50;;;11.60;98.60;;;;;;5047665;28;20202;-75
2021/10/13 09:57:44;;;;;;;0.70;0.40;;;11.90;97.60;;;;;;5029915;28;20236;-75
2021/10/13 10:00:11;;;;;;;0.40;0.40;;;13.00;97.50;;;;;;5047916;28;20193;-75
2021/10/13 10:03:04;;;;;;;0.30;0.22;;;13.40;96.70;;;;;;5047921;28;20241;-75
2021/10/13 10:05:36;;;;;;;0.90;0.40;;;14.20;94.80;;;;;;5025853;28;20189;-75
2021/10/13 10:08:11;;;;;;;0.35;0.35;;;14.40;95.40;;;;;;5047743;28;20158;-75
2021/10/13 10:11:15;;;;;;;2.75;0.50;;;15.20;95.00;;;;;;5047572;28;20197;-75
2021/10/13 10:13:41;;;;;;;0.32;0.32;;;14.80;95.50;;;;;;5006136;28;20232;-75
2021/10/13 10:16:09;;;;;;;2.00;1.20;;;14.20;95.50;;;;;;4989552;28;20218;-75
2021/10/13 10:18:38;;;;;;;6.43;0.60;;;13.40;96.50;;;;;;5005831;28;20167;-76
2021/10/13 10:21:25;;;;;;;0.17;0.17;;;13.20;97.50;;;;;;5006011;28;20671;-75
2021/10/13 10:23:56;;;;;;;1.05;0.40;;;12.70;96.70;;;;;;5005862;28;20206;-75
2021/10/13 10:26:25;;;;;;;0.63;0.40;;;12.50;97.20;;;;;;5005795;28;20226;-75
2021/10/13 10:28:51;;;;;;;0.40;0.25;;;12.60;99.70;;;;;;5005669;28;20191;-75
2021/10/13 10:31:29;;;;;;;0.30;0.30;;;12.50;97.50;;;;;;4989519;28;20229;-75
2021/10/13 10:34:06;;;;;;;0.20;0.20;;;12.30;98.50;;;;;;5005691;28;20549;-75
2021/10/13 10:36:35;;;;;;;0.20;0.20;;;12.50;98.60;;;;;;5005579;28;20267;-75
2021/10/13 10:39:01;;;;;;;1.58;0.55;;;12.40;99.30;;;;;;4989088;28;20199;-75
2021/10/13 10:41:52;;;;;;;1.00;0.47;;;12.50;99.50;;;;;;5005807;28;20191;-75
2021/10/13 10:44:39;;;;;;;0.25;0.22;;;12.20;99.50;;;;;;4989580;28;20170;-76
2021/10/13 10:47:08;;;;;;;0.38;0.38;;;11.90;99.90;;;;;;5012184;28;20184;-75
2021/10/13 10:49:53;;;;;;;0.30;0.20;;;11.80;99.90;;;;;;5047107;28;20189;-74
2021/10/13 10:52:22;;;;;;;1.98;0.20;;;11.60;99.90;;;;;;5046868;28;20281;-74
2021/10/13 10:55:07;;;;;;;0.47;0.20;;;11.50;99.90;;;;;;5048238;28;20536;-74
2021/10/13 10:57:36;;;;;;;0.55;0.40;;;11.40;99.90;;;;;;5050740;28;20177;-75
2021/10/13 11:00:08;;;;;;;0.43;0.22;;;11.20;99.90;;;;;;5050600;28;20185;-75
2021/10/13 11:02:35;;;;;;;0.17;0.17;;;10.90;99.90;;;;;;5050675;28;20153;-74
2021/10/13 11:05:09;;;;;;;2.38;0.30;;;10.90;99.90;;;;;;5050508;28;20158;-75
2021/10/13 11:07:39;;;;;;;0.10;0.10;;;10.90;99.90;;;;;;5050176;28;20179;-74
2021/10/13 11:10:10;;;;;;;0.40;0.38;;;10.80;99.90;;;;;;5050293;28;20193;-74
2021/10/13 11:12:57;;;;;;;2.65;0.40;;;11.00;99.90;;;;;;5050530;28;20153;-74
2021/10/13 11:15:27;;;;;;;0.20;0.20;;;11.00;99.90;;;;;;5050302;28;20170;-75
2021/10/13 11:17:54;;;;;;;0.43;0.20;;;11.50;99.90;;;;;;5050133;28;20153;-74
2021/10/13 11:20:22;;;;;;;0.65;0.30;;;11.80;99.70;;;;;;5032339;28;20193;-75
2021/10/13 11:23:04;;;;;;;0.20;0.20;;;12.10;99.90;;;;;;5050116;28;20158;-75
2021/10/13 11:25:32;;;;;;;0.32;0.22;;;12.50;98.00;;;;;;5049950;28;20221;-75
2021/10/13 11:28:13;;;;;;;1.30;0.20;;;12.50;98.70;;;;;;5049656;28;20177;-74
2021/10/13 11:30:44;;;;;;;0.15;0.10;;;13.10;98.50;;;;;;5049689;28;20193;-75
2021/10/13 11:33:12;;;;;;;2.88;0.63;;;13.00;97.70;;;;;;5049817;28;20269;-75
2021/10/13 11:35:39;;;;;;;0.20;0.20;;;13.10;99.20;;;;;;5031682;28;20201;-75
2021/10/13 11:38:06;;;;;;;0.20;0.15;;;13.70;97.60;;;;;;5049644;28;20177;-75
2021/10/13 11:40:34;;;;;;;0.35;0.30;;;14.60;98.70;;;;;;5048974;28;20193;-75
2021/10/13 11:43:08;;;;;;;0.52;0.52;;;14.00;96.40;;;;;;5049297;28;20173;-77
2021/10/13 11:45:34;;;;;;;2.60;0.32;;;13.30;97.70;;;;;;5049439;28;20157;-76
2021/10/13 11:48:01;;;;;;;0.13;0.13;;;12.30;98.30;;;;;;5061045;28;20196;-76
2021/10/13 11:50:31;;;;;;;0.20;0.20;;;12.00;99.40;;;;;;5031394;28;20242;-75
2021/10/13 11:52:58;;;;;;;0.13;0.13;;;12.00;99.60;;;;;;5049258;28;20213;-75
2021/10/13 11:55:31;;;;;;;0.20;0.20;;;11.80;99.50;;;;;;5049375;28;20161;-76
2021/10/13 11:58:03;;;;;;;0.30;0.30;;;12.10;99.20;;;;;;5031122;28;20169;-76
2021/10/13 12:00:32;;;;;;;0.98;0.30;;;12.10;98.60;;;;;;5031349;28;20193;-76
2021/10/13 12:03:00;;;;;;;0.17;0.17;;;11.70;98.50;;;;;;5043012;28;20205;-75
2021/10/13 12:05:39;;;;;;;0.30;0.30;;;12.30;99.00;;;;;;5011607;28;20612;-76
2021/10/13 12:08:08;;;;;;;0.20;0.20;;;13.00;97.40;;;;;;5011665;28;20193;-75
2021/10/13 12:10:40;;;;;;;0.60;0.20;;;12.80;98.30;;;;;;5011763;28;20194;-76
2021/10/13 12:13:10;;;;;;;0.20;0.20;;;12.70;96.70;;;;;;5011714;28;20277;-75
2021/10/13 12:15:36;;;;;;;0.38;0.20;;;12.20;97.90;;;;;;5029561;28;20182;-75
2021/10/13 12:18:23;;;;;;;0.85;0.40;;;12.00;97.70;;;;;;5029437;28;20174;-75
2021/10/13 12:20:53;;;;;;;1.05;0.40;;;12.10;98.70;;;;;;5029421;28;20196;-75
2021/10/13 12:23:23;;;;;;;1.60;0.40;;;12.10;98.10;;;;;;5011871;28;20162;-74
2021/10/13 12:25:50;;;;;;;1.20;0.68;;;12.40;97.30;;;;;;5029561;28;20162;-74
2021/10/13 12:28:28;;;;;;;0.50;0.50;;;12.60;98.40;;;;;;5028937;28;20165;-74
2021/10/13 12:31:05;;;;;;;0.45;0.45;;;12.90;99.30;;;;;;5029002;28;20209;-74
2021/10/13 12:33:59;;;;;;;1.27;0.40;;;13.20;96.10;;;;;;5028744;28;20170;-75
2021/10/13 12:36:32;;;;;;;1.65;0.32;;;13.00;97.60;;;;;;5028907;28;20197;-75
2021/10/13 12:39:07;;;;;;;0.73;0.38;;;12.60;97.40;;;;;;5028913;28;20162;-73
2021/10/13 12:41:38;;;;;;;0.70;0.40;;;12.60;97.40;;;;;;5028671;28;20161;-73
2021/10/13 12:44:23;;;;;;;1.20;0.40;;;12.60;97.10;;;;;;5028853;28;20158;-74
2021/10/13 12:47:08;;;;;;;0.40;0.30;;;12.70;98.10;;;;;;5047693;28;20237;-73
2021/10/13 12:49:39;;;;;;;0.38;0.30;;;12.60;97.50;;;;;;5033735;28;20580;-74
2021/10/13 12:52:26;;;;;;;0.20;0.20;;;12.90;97.30;;;;;;5027576;28;20244;-73
2021/10/13 12:54:57;;;;;;;0.28;0.28;;;12.80;96.90;;;;;;5027923;28;20249;-75
2021/10/13 12:57:28;;;;;;;0.43;0.30;;;12.60;96.10;;;;;;5028460;28;20225;-73
2021/10/13 12:59:55;;;;;;;0.75;0.20;;;12.40;96.60;;;;;;5028351;28;20314;-76
2021/10/13 13:02:22;;;;;;;0.50;0.40;;;12.10;95.70;;;;;;5028545;28;20173;-74
2021/10/13 13:04:49;;;;;;;0.10;0.10;;;11.90;96.50;;;;;;5028530;28;20161;-73